Petrolia, Texas
Current Conditions -  °F | °C
As of 7:52 PM on Friday 24 Oct 2014 (Local Time) from KSPS Reporting Station
Clear Clear  
Wind Chill: 73°   Ceiling: Unl
Heat Index: 73°   Visibility: 10mi
Dew Point: 59°   Wind: 6mph
Humidity: 61%   Direction: 140°SE
Pressure: 30.03"   Gusts: NA
Location:  34.01°N, 98.23°W
Report Text: KSPS 250052Z 14005KT 10SM CLR 23/15 A3003 RMK AO2 SLP161 T02280150
Loading
Personal Weather Stations






























Interactive Weather Map
Tropical Storm Tracking
New forecast layout! Learn more

10-Day Weather Forecast

Advertisements
Track Severe Weather on mobile